Time;durP1;ratioP1;P1;durP2;ratioP2;P2;SDS_P1;SDS_P2;PMS_P1;PMS_P2;Temp;Humidity;BMP_temperature;BMP_pressure;BME280_temperature;BME280_humidity;BME280_pressure;Samples;Min_cycle;Max_cycle;Signal;HPM_P1;HPM_P2
2022/06/18 00:00:59;;;;;;;2.58;2.00;;;;;;;21.69;61.26;101580.56;4991275;28;20111;-89
2022/06/18 00:03:25;;;;;;;3.92;2.60;;;;;;;21.67;61.04;101581.81;5009223;28;20055;-89
2022/06/18 00:05:56;;;;;;;5.63;1.90;;;;;;;21.62;60.92;101579.00;4994721;28;20034;-88
2022/06/18 00:08:24;;;;;;;3.72;2.03;;;;;;;21.60;61.14;101573.13;4990162;28;20036;-88
2022/06/18 00:13:39;;;;;;;3.45;1.83;;;;;;;21.52;61.16;101564.41;4991265;28;20033;-88
2022/06/18 00:13:42;;;;;;;2.88;1.83;;;;;;;21.47;61.27;101568.72;5008155;28;20045;-89
2022/06/18 00:16:19;;;;;;;2.65;1.85;;;;;;;21.42;61.16;101552.66;4990848;28;20060;-88
2022/06/18 00:18:44;;;;;;;2.97;2.00;;;;;;;21.35;61.18;101565.91;4988374;28;20030;-88
2022/06/18 00:21:18;;;;;;;3.05;2.00;;;;;;;21.32;61.08;101566.28;4995929;28;20061;-88
2022/06/18 00:23:44;;;;;;;3.22;1.80;;;;;;;21.25;61.28;101563.69;4994435;28;20091;-88
2022/06/18 00:26:10;;;;;;;4.45;1.75;;;;;;;21.21;61.52;101562.50;4987959;28;20038;-88
2022/06/18 00:28:36;;;;;;;2.70;1.88;;;;;;;21.16;61.81;101564.94;4996626;28;20037;-88
2022/06/18 00:31:01;;;;;;;3.10;2.00;;;;;;;21.12;61.94;101563.75;5012151;28;20040;-88
2022/06/18 00:33:28;;;;;;;5.80;2.40;;;;;;;21.05;62.10;101555.03;5010248;28;20037;-88
2022/06/18 00:35:58;;;;;;;4.60;2.17;;;;;;;20.94;62.24;101557.28;4987915;28;20041;-88
2022/06/18 00:38:26;;;;;;;4.60;1.80;;;;;;;20.90;62.17;101561.34;4995671;28;20668;-89
2022/06/18 00:40:52;;;;;;;5.03;2.50;;;;;;;20.86;62.08;101554.06;4991864;28;20541;-88
2022/06/18 00:43:47;;;;;;;6.93;1.88;;;;;;;20.94;60.35;101557.28;4988828;28;20033;-87
2022/06/18 00:46:20;;;;;;;3.05;2.00;;;;;;;20.96;60.23;101557.91;5010353;28;20029;-87
2022/06/18 00:48:56;;;;;;;5.45;2.00;;;;;;;20.97;59.70;101550.81;4996370;28;20041;-88
2022/06/18 00:51:26;;;;;;;2.75;1.70;;;;;;;20.97;59.97;101551.59;5012499;28;20116;-88
2022/06/18 00:54:02;;;;;;;2.05;1.40;;;;;;;20.97;59.88;101553.44;4989446;28;20030;-89
2022/06/18 00:56:40;;;;;;;3.45;1.63;;;;;;;21.03;59.47;101557.09;4994557;28;20083;-88
2022/06/18 00:59:32;;;;;;;4.93;2.20;;;;;;;20.98;59.54;101549.78;5012833;28;20029;-88
2022/06/18 01:02:00;;;;;;;2.85;1.75;;;;;;;20.95;59.46;101556.28;5007542;28;20044;-88
2022/06/18 01:04:30;;;;;;;2.85;1.70;;;;;;;20.91;59.56;101555.09;4998730;28;20040;-86
2022/06/18 01:07:05;;;;;;;2.28;1.45;;;;;;;20.90;59.30;101558.72;5010923;28;20029;-89
2022/06/18 01:09:32;;;;;;;3.95;1.70;;;;;;;20.90;59.01;101555.28;5004508;28;20029;-88
2022/06/18 01:11:58;;;;;;;2.88;1.60;;;;;;;20.94;58.55;101559.13;4996515;28;20030;-89
2022/06/18 01:14:27;;;;;;;3.70;2.25;;;;;;;20.92;59.09;101558.50;5014907;28;20424;-88
2022/06/18 01:16:56;;;;;;;2.92;1.60;;;;;;;20.90;58.88;101550.00;4994242;28;20038;-88
2022/06/18 01:19:37;;;;;;;5.40;1.92;;;;;;;20.91;58.61;101544.53;4998495;28;20029;-89
2022/06/18 01:22:03;;;;;;;3.20;1.50;;;;;;;20.85;59.11;101544.53;5006359;28;20445;-88
2022/06/18 01:24:39;;;;;;;6.10;2.05;;;;;;;20.86;58.97;101533.78;4997995;28;20041;-88
2022/06/18 01:27:08;;;;;;;3.55;1.60;;;;;;;20.90;57.98;101535.00;4995325;28;20041;-89
2022/06/18 01:29:35;;;;;;;2.20;1.40;;;;;;;20.90;58.39;101532.34;5013305;28;20045;-88
2022/06/18 01:32:03;;;;;;;6.07;1.50;;;;;;;20.91;57.96;101531.34;4990337;28;20401;-87
2022/06/18 01:34:29;;;;;;;4.32;1.60;;;;;;;21.00;57.31;101521.38;5006575;28;20137;-87
2022/06/18 01:36:58;;;;;;;4.03;1.75;;;;;;;21.04;57.13;101519.97;5010778;28;20040;-88
2022/06/18 01:39:30;;;;;;;5.47;1.58;;;;;;;21.03;57.24;101515.69;4991646;28;20440;-89
2022/06/18 01:42:03;;;;;;;2.30;1.48;;;;;;;21.00;57.53;101516.09;4997990;28;20033;-89
2022/06/18 01:44:54;;;;;;;4.25;1.92;;;;;;;20.97;58.17;101516.53;5009773;28;20371;-88
2022/06/18 01:47:53;;;;;;;2.63;1.90;;;;;;;20.98;57.75;101520.78;4990690;28;20317;-87
2022/06/18 01:50:38;;;;;;;2.10;1.30;;;;;;;20.90;58.08;101513.09;5002295;28;20040;-88
2022/06/18 01:53:19;;;;;;;4.45;1.60;;;;;;;20.86;57.93;101517.19;4996883;28;20037;-88
2022/06/18 01:55:52;;;;;;;4.07;1.48;;;;;;;20.98;57.06;101515.50;5008104;28;20399;-89
2022/06/18 01:58:24;;;;;;;2.70;1.63;;;;;;;20.94;57.54;101517.75;5001368;28;20025;-89
2022/06/18 02:00:57;;;;;;;2.30;1.55;;;;;;;20.96;57.41;101505.19;5004965;28;20104;-89
2022/06/18 02:03:22;;;;;;;3.22;1.60;;;;;;;20.93;58.51;101507.44;5011204;28;20037;-89
2022/06/18 02:05:48;;;;;;;2.35;1.40;;;;;;;20.86;58.38;101502.16;5000519;28;20029;-88
2022/06/18 02:08:16;;;;;;;2.28;1.20;;;;;;;20.87;57.84;101505.59;5001288;28;20072;-88
2022/06/18 02:10:54;;;;;;;3.58;1.60;;;;;;;20.86;58.14;101496.09;4991539;28;20125;-89
2022/06/18 02:13:23;;;;;;;3.35;1.70;;;;;;;20.82;58.87;101502.81;4996799;28;20025;-89
2022/06/18 02:15:53;;;;;;;1.60;1.40;;;;;;;20.78;58.78;101502.41;4995647;28;20113;-89
2022/06/18 02:18:19;;;;;;;10.98;1.73;;;;;;;20.82;58.10;101498.34;5004936;28;20128;-88
2022/06/18 02:20:50;;;;;;;4.53;1.48;;;;;;;20.86;58.33;101504.00;5007034;28;20269;-88
2022/06/18 02:23:17;;;;;;;6.20;1.70;;;;;;;20.81;58.32;101499.34;5001820;28;20374;-88
2022/06/18 02:25:44;;;;;;;2.53;1.65;;;;;;;20.77;58.53;101496.31;5007155;28;20474;-89
2022/06/18 02:28:25;;;;;;;2.63;1.55;;;;;;;20.76;58.26;101484.16;4983814;28;20490;-88
2022/06/18 02:30:57;;;;;;;7.97;2.45;;;;;;;20.75;58.55;101495.69;4992988;28;20033;-89
2022/06/18 02:33:28;;;;;;;2.35;1.48;;;;;;;20.75;58.76;101500.97;4991416;28;20029;-89
2022/06/18 02:35:57;;;;;;;5.13;1.45;;;;;;;20.73;58.69;101504.84;5013145;28;20049;-89
2022/06/18 02:38:22;;;;;;;4.22;1.60;;;;;;;20.73;58.51;101508.28;5012164;28;20036;-87
2022/06/18 02:40:48;;;;;;;6.70;1.63;;;;;;;20.72;58.80;101498.78;5013587;28;20030;-89
2022/06/18 02:43:24;;;;;;;2.83;1.45;;;;;;;20.69;58.89;101507.06;4995910;28;20029;-89
2022/06/18 02:45:54;;;;;;;3.28;1.60;;;;;;;20.68;58.97;101510.75;4993856;28;20076;-89
2022/06/18 02:48:26;;;;;;;4.18;1.50;;;;;;;20.66;59.29;101510.13;4996861;28;20033;-89
2022/06/18 02:50:57;;;;;;;1.95;1.40;;;;;;;20.63;59.46;101504.47;5008888;28;20034;-89
2022/06/18 02:53:24;;;;;;;2.70;1.60;;;;;;;20.59;59.56;101502.22;5001686;28;20045;-87
2022/06/18 02:55:54;;;;;;;4.85;2.10;;;;;;;20.58;59.69;101505.03;4990386;28;20029;-89
2022/06/18 02:58:29;;;;;;;2.60;1.65;;;;;;;20.56;60.23;101517.59;5007435;28;20033;-89
2022/06/18 03:01:03;;;;;;;2.83;1.50;;;;;;;20.55;60.35;101511.53;5006911;28;20037;-89
2022/06/18 03:03:35;;;;;;;4.55;1.60;;;;;;;20.51;60.27;101517.41;4989569;28;20033;-89
2022/06/18 03:06:02;;;;;;;2.17;1.52;;;;;;;20.49;60.49;101516.81;4990611;28;20089;-89
2022/06/18 03:08:29;;;;;;;2.75;1.65;;;;;;;20.48;60.69;101512.56;5008112;28;20037;-88
2022/06/18 03:13:42;;;;;;;4.15;1.80;;;;;;;20.39;61.47;101510.13;5007364;28;20033;-89
2022/06/18 03:16:10;;;;;;;4.38;2.03;;;;;;;20.35;62.05;101519.44;5011957;28;20072;-89
2022/06/18 03:18:39;;;;;;;2.65;1.67;;;;;;;20.32;62.60;101514.56;5007484;28;20030;-89
2022/06/18 03:21:23;;;;;;;2.63;1.40;;;;;;;20.29;62.41;101515.00;5009147;28;20375;-88
2022/06/18 03:23:49;;;;;;;3.17;1.60;;;;;;;20.29;61.96;101515.00;5007492;28;20037;-89
2022/06/18 03:26:16;;;;;;;2.85;1.63;;;;;;;20.25;62.03;101518.22;5010372;28;20032;-89
2022/06/18 03:28:44;;;;;;;1.63;1.50;;;;;;;20.26;62.02;101517.22;5005008;28;20057;-88
2022/06/18 03:31:10;;;;;;;5.28;1.83;;;;;;;20.25;62.13;101512.97;4989669;28;20044;-87
2022/06/18 03:33:38;;;;;;;5.80;1.83;;;;;;;20.25;61.97;101523.50;5000699;28;20037;-88
2022/06/18 03:36:05;;;;;;;4.68;1.67;;;;;;;20.33;61.39;101516.22;5010633;28;20044;-89
2022/06/18 03:38:32;;;;;;;2.65;1.63;;;;;;;20.26;61.48;101518.03;5008528;28;20046;-89
2022/06/18 03:40:59;;;;;;;5.18;1.70;;;;;;;20.27;61.69;101517.03;5005461;28;20052;-88
2022/06/18 03:43:26;;;;;;;7.72;1.60;;;;;;;20.25;61.92;101516.44;4987307;28;20037;-89
2022/06/18 03:45:56;;;;;;;4.45;1.58;;;;;;;20.27;61.51;101514.41;4996587;28;20076;-89
2022/06/18 03:48:50;;;;;;;2.17;1.50;;;;;;;20.26;61.63;101512.75;5013368;28;20737;-89
2022/06/18 03:51:19;;;;;;;3.83;1.80;;;;;;;20.26;61.74;101515.41;5001056;28;20128;-88
2022/06/18 03:53:48;;;;;;;3.33;2.00;;;;;;;20.29;61.57;101512.38;4995485;28;20030;-89
2022/06/18 03:56:17;;;;;;;3.75;1.80;;;;;;;20.32;61.46;101511.94;5006948;28;20056;-89
2022/06/18 03:58:44;;;;;;;2.47;1.67;;;;;;;20.33;61.63;101510.94;4991305;28;20050;-89
2022/06/18 04:01:14;;;;;;;2.90;1.35;;;;;;;20.43;61.35;101510.53;4996476;28;20030;-89
2022/06/18 04:03:40;;;;;;;4.32;1.60;;;;;;;20.42;61.21;101512.34;5003393;28;20454;-88
2022/06/18 04:06:14;;;;;;;8.45;1.65;;;;;;;20.48;61.64;101510.72;4991946;28;20060;-88
2022/06/18 04:08:44;;;;;;;3.42;1.38;;;;;;;20.48;61.29;101513.38;4994521;28;20032;-89
2022/06/18 04:11:21;;;;;;;3.10;1.52;;;;;;;20.51;61.28;101510.34;5011929;28;20040;-89
2022/06/18 04:13:47;;;;;;;3.88;1.83;;;;;;;20.50;61.68;101508.69;5008870;28;20037;-88
2022/06/18 04:16:30;;;;;;;3.92;1.60;;;;;;;20.53;61.59;101512.75;4999544;28;20343;-89
2022/06/18 04:19:00;;;;;;;3.88;1.80;;;;;;;20.55;62.24;101515.97;5006525;28;20084;-89
2022/06/18 04:21:26;;;;;;;6.15;2.10;;;;;;;20.58;61.92;101519.00;4995193;28;20382;-87
2022/06/18 04:23:52;;;;;;;8.80;1.70;;;;;;;20.63;61.75;101515.81;5008680;28;20375;-89
2022/06/18 04:26:18;;;;;;;5.60;1.63;;;;;;;20.65;61.41;101518.25;4999192;28;20362;-89
2022/06/18 04:28:46;;;;;;;4.15;2.05;;;;;;;20.68;61.00;101513.38;5004043;28;20449;-88
2022/06/18 04:31:15;;;;;;;3.85;1.50;;;;;;;20.73;61.01;101521.44;5009963;28;20029;-89
2022/06/18 04:33:44;;;;;;;4.65;1.67;;;;;;;20.77;61.69;101516.59;4993613;28;20029;-89
2022/06/18 04:36:34;;;;;;;5.07;1.70;;;;;;;20.82;62.03;101515.97;5004531;28;20502;-88
2022/06/18 04:39:19;;;;;;;4.25;1.67;;;;;;;20.83;61.47;101509.69;4997820;28;20038;-88
2022/06/18 04:41:50;;;;;;;2.40;1.50;;;;;;;20.86;61.58;101510.06;4997505;28;20062;-88
2022/06/18 04:44:19;;;;;;;4.38;1.88;;;;;;;20.91;62.00;101505.00;4999972;28;20156;-89
2022/06/18 04:46:55;;;;;;;3.60;1.70;;;;;;;20.96;62.36;101515.75;4999731;28;20037;-89
2022/06/18 04:49:24;;;;;;;3.05;1.92;;;;;;;21.01;62.60;101507.19;4990039;28;20360;-89
2022/06/18 04:51:51;;;;;;;4.60;2.05;;;;;;;21.06;63.19;101502.13;4989462;28;20037;-89
2022/06/18 04:54:30;;;;;;;4.65;2.17;;;;;;;21.12;64.08;101505.75;5003352;28;20065;-88
2022/06/18 04:56:55;;;;;;;3.33;1.83;;;;;;;21.14;64.35;101499.22;4988594;28;20041;-89
2022/06/18 04:59:22;;;;;;;2.33;1.45;;;;;;;21.20;64.55;101508.13;5007767;28;20028;-89
2022/06/18 05:01:59;;;;;;;2.72;1.95;;;;;;;21.26;64.08;101498.56;4987923;28;20037;-89
2022/06/18 05:04:41;;;;;;;3.50;2.45;;;;;;;21.33;64.76;101504.63;5004861;28;20091;-89
2022/06/18 05:07:30;;;;;;;4.43;1.85;;;;;;;21.39;64.27;101501.94;4985717;28;20041;-89
2022/06/18 05:10:22;;;;;;;3.17;1.65;;;;;;;21.49;63.74;101503.34;4978421;28;20128;-89
2022/06/18 05:12:53;;;;;;;4.63;1.85;;;;;;;21.55;63.50;101508.59;5000291;28;20038;-89
2022/06/18 05:15:36;;;;;;;3.03;1.50;;;;;;;21.65;62.92;101508.13;4993012;28;20573;-89
2022/06/18 05:18:01;;;;;;;3.83;1.75;;;;;;;21.73;63.08;101501.78;5006766;28;20550;-89
2022/06/18 05:20:27;;;;;;;2.78;1.90;;;;;;;21.84;63.04;101497.66;5000749;28;20041;-89
2022/06/18 05:22:57;;;;;;;2.97;1.58;;;;;;;21.92;62.77;101500.84;4986336;28;20124;-88
2022/06/18 05:25:22;;;;;;;5.05;1.48;;;;;;;22.03;62.01;101496.69;5002031;28;20053;-88
2022/06/18 05:27:48;;;;;;;2.95;1.75;;;;;;;22.16;61.82;101487.88;4990105;28;20030;-89
2022/06/18 05:30:25;;;;;;;3.35;2.10;;;;;;;22.29;61.29;101487.78;5005332;28;20486;-89
2022/06/18 05:32:52;;;;;;;4.72;1.90;;;;;;;22.42;61.25;101488.69;4986560;28;20069;-89
2022/06/18 05:35:20;;;;;;;4.35;1.58;;;;;;;22.54;61.04;101492.22;4986653;28;20033;-90
2022/06/18 05:37:47;;;;;;;11.63;3.08;;;;;;;22.67;59.68;101489.44;4990063;28;20045;-88
2022/06/18 05:40:13;;;;;;;3.17;2.08;;;;;;;22.81;59.57;101486.63;4994483;28;20030;-89
2022/06/18 05:42:41;;;;;;;7.07;2.05;;;;;;;22.97;59.39;101486.03;4998767;28;20037;-89
2022/06/18 05:45:09;;;;;;;5.30;1.75;;;;;;;23.13;59.68;101482.81;4987720;28;20044;-89
2022/06/18 05:47:35;;;;;;;5.05;1.95;;;;;;;23.28;59.53;101489.53;5000846;28;20069;-90
2022/06/18 05:50:02;;;;;;;5.07;1.80;;;;;;;23.44;59.18;101485.47;5003634;28;20030;-89
2022/06/18 05:52:30;;;;;;;6.00;1.60;;;;;;;23.62;58.79;101492.53;5006671;28;20491;-89
2022/06/18 05:55:02;;;;;;;10.77;2.10;;;;;;;23.79;58.85;101484.78;5009502;28;20030;-90
2022/06/18 05:57:51;;;;;;;8.90;2.08;;;;;;;23.98;57.26;101481.03;4990224;28;20065;-89
2022/06/18 06:00:26;;;;;;;5.93;2.20;;;;;;;24.14;56.26;101487.47;5010761;28;20040;-89
2022/06/18 06:02:54;;;;;;;2.90;1.70;;;;;;;24.27;55.84;101486.44;4996979;28;20033;-89
2022/06/18 06:05:19;;;;;;;5.18;1.77;;;;;;;24.42;55.52;101486.75;5016068;28;20032;-90
2022/06/18 06:07:49;;;;;;;3.15;1.73;;;;;;;24.63;54.92;101488.03;4995860;28;20037;-90
2022/06/18 06:13:10;;;;;;;5.13;2.53;;;;;;;25.00;54.25;101489.56;5023464;28;20044;-90
2022/06/18 06:15:38;;;;;;;5.70;1.98;;;;;;;25.19;54.07;101484.88;4997149;28;20061;-89
2022/06/18 06:18:05;;;;;;;3.67;1.70;;;;;;;25.35;53.19;101492.09;5013429;28;20022;-89
2022/06/18 06:20:38;;;;;;;9.32;2.90;;;;;;;25.55;52.63;101488.22;5006469;28;20044;-89
2022/06/18 06:23:05;;;;;;;2.88;1.73;;;;;;;25.74;51.48;101486.94;5012104;28;20041;-89
2022/06/18 06:25:31;;;;;;;9.50;2.30;;;;;;;25.91;50.95;101492.25;4999640;28;20045;-90
2022/06/18 06:27:59;;;;;;;3.95;1.73;;;;;;;26.11;51.20;101496.31;5013311;28;20037;-90
2022/06/18 06:30:28;;;;;;;5.47;2.20;;;;;;;26.29;50.61;101481.94;4992073;28;20030;-90
2022/06/18 06:32:54;;;;;;;5.40;2.05;;;;;;;26.47;50.23;101488.81;4996691;28;20050;-89
2022/06/18 06:35:20;;;;;;;4.22;1.88;;;;;;;26.72;50.38;101489.16;5016398;28;20041;-89
2022/06/18 06:37:46;;;;;;;6.68;2.03;;;;;;;26.90;49.54;101490.72;4993365;28;20075;-90
2022/06/18 06:40:13;;;;;;;5.20;1.95;;;;;;;27.12;48.87;101489.88;5012024;28;20075;-89
2022/06/18 06:42:50;;;;;;;3.88;1.90;;;;;;;27.40;49.17;101478.19;5014779;28;20045;-89
2022/06/18 06:45:28;;;;;;;7.82;3.30;;;;;;;27.50;48.08;101482.81;5015414;28;20068;-89
2022/06/18 06:48:12;;;;;;;9.65;1.90;;;;;;;27.66;46.89;101483.75;5013249;28;20061;-90
2022/06/18 06:50:40;;;;;;;6.35;1.90;;;;;;;27.91;46.11;101491.94;5013448;28;20044;-89
2022/06/18 06:53:06;;;;;;;6.30;2.05;;;;;;;28.05;47.59;101488.84;5009038;28;20045;-90
2022/06/18 06:58:24;;;;;;;7.93;2.38;;;;;;;28.42;44.96;101474.66;5008812;28;20061;-90
2022/06/18 07:00:53;;;;;;;4.40;2.25;;;;;;;28.71;44.88;101475.88;5011076;28;20029;-90
2022/06/18 07:03:24;;;;;;;7.85;2.42;;;;;;;28.87;45.04;101478.59;5009746;28;20033;-89
2022/06/18 07:05:50;;;;;;;8.40;2.80;;;;;;;29.06;43.35;101474.34;4997926;28;20071;-87
2022/06/18 07:08:15;;;;;;;9.88;2.35;;;;;;;29.12;42.98;101483.16;4992374;28;20057;-90
2022/06/18 07:10:51;;;;;;;9.75;2.60;;;;;;;29.22;41.74;101477.09;4993983;28;20043;-90
2022/06/18 07:13:18;;;;;;;7.75;2.45;;;;;;;29.30;42.79;101488.03;4989347;28;20069;-90
2022/06/18 07:15:44;;;;;;;15.10;3.05;;;;;;;29.18;42.00;101481.34;4996945;28;20468;-90
2022/06/18 07:18:20;;;;;;;7.47;2.20;;;;;;;29.42;42.65;101482.47;5009539;28;20030;-89
2022/06/18 07:20:48;;;;;;;6.20;2.00;;;;;;;29.72;41.56;101480.03;4998294;28;20026;-91
2022/06/18 07:23:16;;;;;;;10.63;2.42;;;;;;;30.02;41.61;101473.88;5006873;28;20389;-89
2022/06/18 07:25:44;;;;;;;9.38;2.13;;;;;;;30.20;40.57;101481.31;4960795;28;20038;-90
2022/06/18 07:28:10;;;;;;;7.28;2.88;;;;;;;30.18;39.86;101482.69;4996880;28;20088;-89
2022/06/18 07:30:49;;;;;;;6.65;2.30;;;;;;;30.14;39.26;101481.59;5000402;28;20438;-90
2022/06/18 07:33:21;;;;;;;9.50;2.45;;;;;;;30.32;40.21;101481.03;5007040;28;20359;-91
2022/06/18 07:35:48;;;;;;;10.93;3.03;;;;;;;30.30;39.81;101480.47;5004305;28;20030;-90
2022/06/18 07:38:14;;;;;;;9.43;2.42;;;;;;;30.35;39.46;101485.06;5007623;28;20078;-90
2022/06/18 07:40:46;;;;;;;7.35;2.80;;;;;;;30.53;40.39;101470.25;4999047;28;20442;-89
2022/06/18 07:43:30;;;;;;;;;;;;;;;30.83;39.82;101470.09;4997183;28;20036;-90
2022/06/18 07:46:13;;;;;;;9.43;2.50;;;;;;;31.15;39.16;101468.06;5013267;28;20433;-90
2022/06/18 07:48:44;;;;;;;5.30;2.22;;;;;;;31.45;38.52;101469.72;4994314;28;20030;-88
2022/06/18 07:51:10;;;;;;;8.00;2.47;;;;;;;31.42;37.74;101457.69;5002107;28;20049;-90
2022/06/18 07:53:39;;;;;;;9.77;2.50;;;;;;;31.51;37.50;101449.84;4995928;28;20045;-92
2022/06/18 07:56:05;;;;;;;9.02;2.90;;;;;;;31.51;36.98;101449.84;5011559;28;20029;-89
2022/06/18 07:58:31;;;;;;;7.47;2.15;;;;;;;31.71;37.18;101445.41;4987921;28;20025;-91
2022/06/18 08:01:00;;;;;;;14.65;2.22;;;;;;;31.91;38.24;101450.56;5009672;28;20044;-89
2022/06/18 08:03:26;;;;;;;9.48;2.35;;;;;;;32.23;37.10;101440.28;4993948;28;20041;-89
2022/06/18 08:05:53;;;;;;;8.65;3.00;;;;;;;32.22;37.72;101438.72;4992826;28;20445;-90
2022/06/18 08:08:19;;;;;;;7.28;2.42;;;;;;;32.19;36.24;101430.16;5002026;28;20076;-88
2022/06/18 08:10:49;;;;;;;6.85;2.10;;;;;;;32.58;36.41;101417.59;5016222;28;20033;-90
2022/06/18 08:13:15;;;;;;;6.35;2.33;;;;;;;32.38;36.23;101419.47;4994213;28;20036;-91
2022/06/18 08:15:44;;;;;;;6.32;2.70;;;;;;;32.71;35.65;101416.88;4993281;28;20049;-91
2022/06/18 08:18:10;;;;;;;5.90;2.10;;;;;;;32.80;35.92;101413.56;4992608;28;20025;-90
2022/06/18 08:20:36;;;;;;;10.20;2.35;;;;;;;32.80;35.81;101414.34;5011499;28;20611;-90
2022/06/18 08:23:03;;;;;;;11.65;2.30;;;;;;;33.13;35.52;101415.19;4999582;28;20030;-90
2022/06/18 08:25:33;;;;;;;6.47;2.20;;;;;;;33.05;35.26;101407.75;4994195;28;20045;-90
2022/06/18 08:28:02;;;;;;;7.97;2.75;;;;;;;33.23;34.72;101418.78;5001337;28;20128;-90
2022/06/18 08:30:28;;;;;;;10.38;3.15;;;;;;;33.20;33.63;101412.13;5000894;28;20503;-90
2022/06/18 08:32:54;;;;;;;8.38;2.17;;;;;;;33.18;34.90;101414.31;4990180;28;20034;-88
2022/06/18 08:35:24;;;;;;;11.65;2.25;;;;;;;32.86;35.03;101413.16;5016330;28;20029;-90
2022/06/18 08:37:54;;;;;;;12.02;2.15;;;;;;;33.15;34.64;101418.38;5010893;28;20036;-87
2022/06/18 08:40:37;;;;;;;5.80;2.00;;;;;;;33.39;33.89;101417.44;5009206;28;20034;-80
2022/06/18 08:43:34;;;;;;;8.55;2.53;;;;;;;33.40;34.45;101421.72;4994002;28;20033;-85
2022/06/18 08:46:29;;;;;;;7.15;2.63;;;;;;;33.67;33.85;101414.81;4997520;28;20029;-90
2022/06/18 08:49:25;;;;;;;11.73;2.63;;;;;;;33.65;34.12;101419.69;4989414;28;20045;-86
2022/06/18 08:52:31;;;;;;;6.10;1.92;;;;;;;33.66;34.63;101413.22;5013799;28;20402;-89
2022/06/18 08:55:34;;;;;;;9.77;2.50;;;;;;;33.87;34.43;101406.38;5012711;28;20039;-90
2022/06/18 08:58:19;;;;;;;10.35;2.25;;;;;;;33.68;33.25;101403.78;5009659;28;20136;-90
2022/06/18 09:00:58;;;;;;;12.57;2.50;;;;;;;33.53;33.73;101399.44;5010403;28;20025;-90
2022/06/18 09:03:27;;;;;;;7.15;2.35;;;;;;;33.88;33.75;101399.09;5010984;28;20033;-90
2022/06/18 09:05:58;;;;;;;12.77;2.47;;;;;;;33.83;34.11;101394.63;5006761;28;20037;-91
2022/06/18 09:08:45;;;;;;;6.50;2.30;;;;;;;33.81;33.63;101391.41;4994941;28;20486;-91
2022/06/18 09:11:22;;;;;;;8.75;2.50;;;;;;;33.94;33.30;101390.63;5007611;28;20041;-86
2022/06/18 09:13:57;;;;;;;4.65;2.17;;;;;;;34.14;33.63;101397.47;5011809;28;20121;-91
2022/06/18 09:16:41;;;;;;;8.50;2.72;;;;;;;33.86;32.30;101391.31;5010674;28;20026;-88
2022/06/18 09:19:08;;;;;;;9.18;2.38;;;;;;;33.94;33.09;101384.44;5009801;28;20445;-88
2022/06/18 09:21:41;;;;;;;10.75;2.13;;;;;;;33.91;33.74;101387.75;5012906;28;20037;-90
2022/06/18 09:24:13;;;;;;;10.18;3.17;;;;;;;33.81;32.38;101382.56;5006469;28;20122;-90
2022/06/18 09:26:45;;;;;;;10.60;2.45;;;;;;;34.00;32.96;101380.56;4993832;28;20485;-89
2022/06/18 09:29:21;;;;;;;8.88;2.42;;;;;;;34.17;34.54;101385.34;5007885;28;20113;-90
2022/06/18 09:32:08;;;;;;;7.20;2.08;;;;;;;34.33;33.18;101383.91;4989915;28;20066;-87
2022/06/18 09:34:41;;;;;;;5.43;2.13;;;;;;;34.48;33.12;101384.66;5009299;28;20528;-89
2022/06/18 09:37:15;;;;;;;6.53;2.03;;;;;;;34.45;32.22;101380.69;5023555;28;20037;-90
2022/06/18 09:39:44;;;;;;;13.00;2.47;;;;;;;34.44;32.85;101383.69;5002590;28;20033;-88
2022/06/18 09:42:48;;;;;;;12.95;2.08;;;;;;;34.39;32.59;101379.19;5017542;28;20037;-88
2022/06/18 09:45:28;;;;;;;9.40;1.95;;;;;;;34.57;32.74;101380.16;4936528;28;20042;-89
2022/06/18 09:47:54;;;;;;;9.48;2.22;;;;;;;34.41;31.42;101381.59;4956755;28;20065;-91
2022/06/18 09:50:29;;;;;;;20.75;3.50;;;;;;;34.62;32.01;101376.53;4995485;28;20065;-91
2022/06/18 09:53:22;;;;;;;9.57;2.70;;;;;;;34.39;31.94;101371.13;5011800;28;20061;-89
2022/06/18 09:56:24;;;;;;;13.07;2.67;;;;;;;34.59;31.50;101377.94;4993224;28;20398;-86
2022/06/18 09:59:04;;;;;;;17.75;2.42;;;;;;;34.67;31.48;101377.25;4983807;28;21299;-91
2022/06/18 10:01:43;;;;;;;19.23;3.40;;;;;;;34.58;32.46;101376.34;5031649;28;20045;-90
2022/06/18 10:07:06;;;;;;;7.93;2.63;;;;;;;34.98;32.38;101375.69;5010953;28;20836;-91
2022/06/18 10:09:38;;;;;;;14.68;2.83;;;;;;;34.85;31.40;101363.91;4996495;28;20034;-91
2022/06/18 10:12:27;;;;;;;4.50;1.90;;;;;;;34.98;31.41;101367.63;4995580;28;20529;-91
2022/06/18 10:14:56;;;;;;;15.43;3.05;;;;;;;34.97;32.72;101377.59;4993212;28;20041;-90
2022/06/18 10:18:18;;;;;;;5.50;2.15;;;;;;;35.05;33.30;101371.47;5012340;28;20037;-90
2022/06/18 10:20:55;;;;;;;7.97;2.10;;;;;;;35.18;32.47;101369.03;4913335;29;20070;-87
2022/06/18 10:23:43;;;;;;;11.98;3.22;;;;;;;35.19;31.54;101365.22;4904315;29;20039;-88
2022/06/18 10:26:35;;;;;;;13.85;3.65;;;;;;;35.20;30.82;101361.44;4995041;28;20041;-86
2022/06/18 10:29:24;;;;;;;13.00;2.77;;;;;;;35.10;31.11;101355.19;5013679;28;20030;-88
2022/06/18 10:32:38;;;;;;;13.80;2.33;;;;;;;34.88;31.44;101349.81;4997117;28;20050;-89
2022/06/18 10:35:21;;;;;;;11.00;2.50;;;;;;;35.02;31.67;101347.84;4955796;28;20046;-91
2022/06/18 10:38:05;;;;;;;13.20;3.05;;;;;;;35.26;30.42;101342.13;5004345;28;20041;-90
2022/06/18 10:41:09;;;;;;;11.73;3.10;;;;;;;35.25;30.77;101337.84;5011161;28;20034;-85
2022/06/18 10:43:50;;;;;;;18.55;2.75;;;;;;;35.19;30.64;101346.34;5003020;28;20049;-90
2022/06/18 10:46:35;;;;;;;23.60;3.08;;;;;;;35.14;30.36;101339.19;4996154;28;20041;-86
2022/06/18 10:49:05;;;;;;;12.13;2.72;;;;;;;35.11;31.02;101339.78;5007974;28;20393;-90
2022/06/18 10:51:49;;;;;;;15.32;2.47;;;;;;;35.34;29.88;101350.53;4988456;28;20113;-89
2022/06/18 10:54:15;;;;;;;13.77;2.75;;;;;;;35.25;30.65;101342.44;5005070;28;20037;-87
2022/06/18 10:56:46;;;;;;;10.63;2.50;;;;;;;35.39;29.56;101340.41;5005973;28;20061;-90
2022/06/18 10:59:11;;;;;;;10.85;2.88;;;;;;;35.40;31.05;101325.84;4993611;28;20041;-83
2022/06/18 11:01:47;;;;;;;12.30;2.85;;;;;;;35.64;30.25;101327.34;5009359;28;20413;-88
2022/06/18 11:04:29;;;;;;;12.30;2.50;;;;;;;35.66;29.16;101327.84;5003620;28;20526;-89
2022/06/18 11:07:00;;;;;;;8.32;2.08;;;;;;;35.57;29.08;101324.31;5008781;28;20395;-89
2022/06/18 11:09:54;;;;;;;8.32;2.50;;;;;;;35.41;30.21;101324.72;4994791;28;20083;-90
2022/06/18 11:12:47;;;;;;;14.25;2.47;;;;;;;35.45;31.15;101325.72;4989947;28;20045;-90
2022/06/18 11:15:29;;;;;;;12.43;2.97;;;;;;;35.74;29.89;101320.91;4999036;28;20084;-88
2022/06/18 11:17:54;;;;;;;10.45;3.05;;;;;;;35.60;30.47;101316.41;5005646;28;20061;-85
2022/06/18 11:20:29;;;;;;;12.73;2.50;;;;;;;35.46;30.06;101311.13;4994257;28;20029;-90
2022/06/18 11:23:02;;;;;;;19.40;3.08;;;;;;;35.42;30.68;101315.56;4994031;28;20042;-87
2022/06/18 11:25:49;;;;;;;10.30;3.28;;;;;;;35.90;30.76;101313.16;4994881;28;20042;-88
2022/06/18 11:28:32;;;;;;;10.48;2.35;;;;;;;35.78;30.10;101309.16;5009105;28;20656;-86
2022/06/18 11:30:58;;;;;;;13.18;2.80;;;;;;;35.69;30.91;101311.06;5012388;28;20790;-89
2022/06/18 11:33:42;;;;;;;20.67;4.35;;;;;;;35.65;30.80;101296.59;4998851;28;20063;-89
2022/06/18 11:36:11;;;;;;;12.07;2.47;;;;;;;36.03;30.22;101301.41;5006683;28;20061;-88
2022/06/18 11:38:39;;;;;;;12.38;3.00;;;;;;;35.88;31.58;101299.97;4985798;28;20041;-89
2022/06/18 11:41:21;;;;;;;9.55;3.45;;;;;;;36.27;29.62;101289.38;4997466;28;20041;-89
2022/06/18 11:44:22;;;;;;;23.73;3.42;;;;;;;36.09;29.92;101296.66;4993481;28;20452;-89
2022/06/18 11:47:16;;;;;;;11.23;2.50;;;;;;;36.10;29.47;101285.53;4989819;28;20045;-86
2022/06/18 11:49:59;;;;;;;11.40;3.65;;;;;;;36.09;30.02;101273.16;4995870;28;20474;-89
2022/06/18 11:52:40;;;;;;;14.55;2.72;;;;;;;35.86;29.90;101278.69;4995635;28;20036;-89
2022/06/18 11:55:27;;;;;;;13.32;2.53;;;;;;;36.07;29.65;101275.38;5004807;28;20034;-87
2022/06/18 11:57:58;;;;;;;11.20;2.88;;;;;;;36.16;29.68;101265.38;4995917;28;20041;-90
2022/06/18 12:00:30;;;;;;;11.23;3.05;;;;;;;36.24;29.73;101261.13;4996736;28;20038;-89
2022/06/18 12:03:33;;;;;;;16.38;3.13;;;;;;;36.26;29.25;101258.88;5010892;28;20029;-86
2022/06/18 12:06:26;;;;;;;20.45;4.07;;;;;;;36.22;30.60;101250.66;4986945;28;20401;-90